sensor_id;sensor_type;location;lat;lon;timestamp;P1;durP1;ratioP1;P2;durP2;ratioP2
32946;SDS011;54465;51.230;22.504;2023-04-21T00:00:10;7.70;;;3.83;;
32946;SDS011;54465;51.230;22.504;2023-04-21T00:05:11;6.70;;;3.92;;
32946;SDS011;54465;51.230;22.504;2023-04-21T00:10:13;5.38;;;3.95;;
32946;SDS011;54465;51.230;22.504;2023-04-21T00:15:13;6.47;;;3.80;;
32946;SDS011;54465;51.230;22.504;2023-04-21T00:20:14;6.57;;;3.92;;
32946;SDS011;54465;51.230;22.504;2023-04-21T00:25:14;6.57;;;3.38;;
32946;SDS011;54465;51.230;22.504;2023-04-21T00:30:15;4.32;;;3.17;;
32946;SDS011;54465;51.230;22.504;2023-04-21T00:35:15;9.10;;;3.72;;
32946;SDS011;54465;51.230;22.504;2023-04-21T00:40:16;7.35;;;2.92;;
32946;SDS011;54465;51.230;22.504;2023-04-21T00:45:16;5.55;;;3.50;;
32946;SDS011;54465;51.230;22.504;2023-04-21T00:50:17;10.27;;;4.55;;
32946;SDS011;54465;51.230;22.504;2023-04-21T00:55:17;7.32;;;3.67;;
32946;SDS011;54465;51.230;22.504;2023-04-21T01:00:18;6.30;;;3.75;;
32946;SDS011;54465;51.230;22.504;2023-04-21T01:05:19;7.38;;;3.75;;
32946;SDS011;54465;51.230;22.504;2023-04-21T01:10:19;5.55;;;3.20;;
32946;SDS011;54465;51.230;22.504;2023-04-21T01:15:20;4.75;;;3.35;;
32946;SDS011;54465;51.230;22.504;2023-04-21T01:20:21;7.32;;;3.20;;
32946;SDS011;54465;51.230;22.504;2023-04-21T01:25:21;7.18;;;3.38;;
32946;SDS011;54465;51.230;22.504;2023-04-21T01:30:24;9.13;;;3.97;;
32946;SDS011;54465;51.230;22.504;2023-04-21T01:35:25;6.20;;;3.15;;
32946;SDS011;54465;51.230;22.504;2023-04-21T01:40:26;6.40;;;3.83;;
32946;SDS011;54465;51.230;22.504;2023-04-21T01:45:26;7.10;;;3.70;;
32946;SDS011;54465;51.230;22.504;2023-04-21T01:50:27;11.95;;;3.63;;
32946;SDS011;54465;51.230;22.504;2023-04-21T01:55:27;6.82;;;3.38;;
32946;SDS011;54465;51.230;22.504;2023-04-21T02:00:28;6.90;;;3.88;;
32946;SDS011;54465;51.230;22.504;2023-04-21T02:05:29;4.65;;;3.33;;
32946;SDS011;54465;51.230;22.504;2023-04-21T02:10:29;3.33;;;2.40;;
32946;SDS011;54465;51.230;22.504;2023-04-21T02:15:30;7.70;;;3.17;;
32946;SDS011;54465;51.230;22.504;2023-04-21T02:20:30;5.63;;;3.15;;
32946;SDS011;54465;51.230;22.504;2023-04-21T02:25:31;5.85;;;3.13;;
32946;SDS011;54465;51.230;22.504;2023-04-21T02:30:32;5.47;;;3.05;;
32946;SDS011;54465;51.230;22.504;2023-04-21T02:35:34;5.97;;;3.30;;
32946;SDS011;54465;51.230;22.504;2023-04-21T02:40:34;5.18;;;3.13;;
32946;SDS011;54465;51.230;22.504;2023-04-21T02:45:35;4.80;;;3.38;;
32946;SDS011;54465;51.230;22.504;2023-04-21T02:50:36;4.90;;;2.78;;
32946;SDS011;54465;51.230;22.504;2023-04-21T02:55:37;8.45;;;2.67;;
32946;SDS011;54465;51.230;22.504;2023-04-21T03:00:37;4.68;;;2.75;;
32946;SDS011;54465;51.230;22.504;2023-04-21T03:05:38;3.65;;;2.65;;
32946;SDS011;54465;51.230;22.504;2023-04-21T03:10:39;5.13;;;2.83;;
32946;SDS011;54465;51.230;22.504;2023-04-21T03:15:40;4.10;;;2.58;;
32946;SDS011;54465;51.230;22.504;2023-04-21T03:20:40;5.57;;;2.63;;
32946;SDS011;54465;51.230;22.504;2023-04-21T03:25:42;4.28;;;2.53;;
32946;SDS011;54465;51.230;22.504;2023-04-21T03:30:42;4.70;;;3.03;;
32946;SDS011;54465;51.230;22.504;2023-04-21T03:35:43;6.55;;;2.78;;
32946;SDS011;54465;51.230;22.504;2023-04-21T03:40:43;4.45;;;2.40;;
32946;SDS011;54465;51.230;22.504;2023-04-21T03:45:44;5.93;;;3.10;;
32946;SDS011;54465;51.230;22.504;2023-04-21T03:50:44;3.45;;;2.22;;
32946;SDS011;54465;51.230;22.504;2023-04-21T03:55:45;4.53;;;2.60;;
32946;SDS011;54465;51.230;22.504;2023-04-21T04:00:48;3.15;;;2.28;;
32946;SDS011;54465;51.230;22.504;2023-04-21T04:05:48;7.25;;;2.40;;
32946;SDS011;54465;51.230;22.504;2023-04-21T04:10:49;4.93;;;2.10;;
32946;SDS011;54465;51.230;22.504;2023-04-21T04:15:49;5.18;;;1.95;;
32946;SDS011;54465;51.230;22.504;2023-04-21T04:20:50;4.35;;;2.42;;
32946;SDS011;54465;51.230;22.504;2023-04-21T04:25:51;5.20;;;2.92;;
32946;SDS011;54465;51.230;22.504;2023-04-21T04:30:51;3.08;;;2.20;;
32946;SDS011;54465;51.230;22.504;2023-04-21T04:35:52;4.65;;;2.53;;
32946;SDS011;54465;51.230;22.504;2023-04-21T04:40:53;4.85;;;2.47;;
32946;SDS011;54465;51.230;22.504;2023-04-21T04:45:54;8.55;;;2.33;;
32946;SDS011;54465;51.230;22.504;2023-04-21T04:50:55;4.65;;;2.25;;
32946;SDS011;54465;51.230;22.504;2023-04-21T04:55:55;3.38;;;2.17;;
32946;SDS011;54465;51.230;22.504;2023-04-21T05:00:57;4.10;;;2.00;;
32946;SDS011;54465;51.230;22.504;2023-04-21T05:05:58;5.35;;;2.53;;
32946;SDS011;54465;51.230;22.504;2023-04-21T05:10:58;5.45;;;2.22;;
32946;SDS011;54465;51.230;22.504;2023-04-21T05:15:59;3.88;;;2.38;;
32946;SDS011;54465;51.230;22.504;2023-04-21T05:21:02;4.50;;;2.08;;
32946;SDS011;54465;51.230;22.504;2023-04-21T05:26:03;4.03;;;1.95;;
32946;SDS011;54465;51.230;22.504;2023-04-21T05:31:04;6.32;;;1.98;;
32946;SDS011;54465;51.230;22.504;2023-04-21T05:36:08;5.18;;;2.10;;
32946;SDS011;54465;51.230;22.504;2023-04-21T05:41:09;6.68;;;2.22;;
32946;SDS011;54465;51.230;22.504;2023-04-21T05:46:09;4.32;;;2.35;;
32946;SDS011;54465;51.230;22.504;2023-04-21T05:51:10;3.65;;;1.75;;
32946;SDS011;54465;51.230;22.504;2023-04-21T05:56:12;3.45;;;1.95;;
32946;SDS011;54465;51.230;22.504;2023-04-21T06:01:13;3.28;;;2.03;;
32946;SDS011;54465;51.230;22.504;2023-04-21T06:06:14;2.55;;;2.17;;
32946;SDS011;54465;51.230;22.504;2023-04-21T06:11:15;8.85;;;2.13;;
32946;SDS011;54465;51.230;22.504;2023-04-21T06:16:16;2.00;;;1.50;;
32946;SDS011;54465;51.230;22.504;2023-04-21T06:21:16;5.05;;;1.90;;
32946;SDS011;54465;51.230;22.504;2023-04-21T06:26:17;2.95;;;1.92;;
32946;SDS011;54465;51.230;22.504;2023-04-21T06:31:17;4.65;;;1.90;;
32946;SDS011;54465;51.230;22.504;2023-04-21T06:36:18;2.38;;;1.88;;
32946;SDS011;54465;51.230;22.504;2023-04-21T06:41:20;4.28;;;2.13;;
32946;SDS011;54465;51.230;22.504;2023-04-21T06:46:21;3.72;;;2.17;;
32946;SDS011;54465;51.230;22.504;2023-04-21T06:51:21;3.17;;;1.80;;
32946;SDS011;54465;51.230;22.504;2023-04-21T06:56:22;4.75;;;2.03;;
32946;SDS011;54465;51.230;22.504;2023-04-21T07:01:22;3.88;;;1.80;;
32946;SDS011;54465;51.230;22.504;2023-04-21T07:06:23;5.78;;;1.85;;
32946;SDS011;54465;51.230;22.504;2023-04-21T07:11:24;2.70;;;1.40;;
32946;SDS011;54465;51.230;22.504;2023-04-21T07:16:24;5.93;;;1.90;;
32946;SDS011;54465;51.230;22.504;2023-04-21T07:21:25;3.92;;;1.77;;
32946;SDS011;54465;51.230;22.504;2023-04-21T07:26:25;1.73;;;1.23;;
32946;SDS011;54465;51.230;22.504;2023-04-21T07:31:26;3.45;;;2.25;;
32946;SDS011;54465;51.230;22.504;2023-04-21T07:36:26;2.80;;;1.45;;
32946;SDS011;54465;51.230;22.504;2023-04-21T07:41:27;5.72;;;1.83;;
32946;SDS011;54465;51.230;22.504;2023-04-21T07:46:28;3.00;;;0.98;;
32946;SDS011;54465;51.230;22.504;2023-04-21T07:51:31;3.65;;;1.50;;
32946;SDS011;54465;51.230;22.504;2023-04-21T07:56:32;2.10;;;1.33;;
32946;SDS011;54465;51.230;22.504;2023-04-21T08:01:32;2.80;;;1.48;;
32946;SDS011;54465;51.230;22.504;2023-04-21T08:06:33;1.30;;;1.20;;
32946;SDS011;54465;51.230;22.504;2023-04-21T08:11:33;7.38;;;1.90;;
32946;SDS011;54465;51.230;22.504;2023-04-21T08:16:34;2.65;;;1.45;;
32946;SDS011;54465;51.230;22.504;2023-04-21T08:21:35;6.05;;;1.67;;
32946;SDS011;54465;51.230;22.504;2023-04-21T08:26:35;2.75;;;1.10;;
32946;SDS011;54465;51.230;22.504;2023-04-21T08:31:36;4.88;;;1.67;;
32946;SDS011;54465;51.230;22.504;2023-04-21T08:36:37;1.60;;;1.00;;
32946;SDS011;54465;51.230;22.504;2023-04-21T08:41:38;2.33;;;0.98;;
32946;SDS011;54465;51.230;22.504;2023-04-21T08:46:42;3.10;;;1.42;;
32946;SDS011;54465;51.230;22.504;2023-04-21T08:51:44;4.50;;;1.00;;
32946;SDS011;54465;51.230;22.504;2023-04-21T08:56:46;1.67;;;1.17;;
32946;SDS011;54465;51.230;22.504;2023-04-21T09:07:07;3.97;;;0.68;;
32946;SDS011;54465;51.230;22.504;2023-04-21T09:12:08;1.90;;;1.13;;
32946;SDS011;54465;51.230;22.504;2023-04-21T09:17:09;1.77;;;0.90;;
32946;SDS011;54465;51.230;22.504;2023-04-21T09:22:13;2.28;;;0.90;;
32946;SDS011;54465;51.230;22.504;2023-04-21T09:27:15;2.17;;;1.00;;
32946;SDS011;54465;51.230;22.504;2023-04-21T09:32:18;1.13;;;1.02;;
32946;SDS011;54465;51.230;22.504;2023-04-21T09:37:19;1.75;;;1.10;;
32946;SDS011;54465;51.230;22.504;2023-04-21T09:42:31;2.80;;;0.98;;
32946;SDS011;54465;51.230;22.504;2023-04-21T09:47:32;1.30;;;0.82;;
32946;SDS011;54465;51.230;22.504;2023-04-21T09:52:39;2.63;;;1.17;;
32946;SDS011;54465;51.230;22.504;2023-04-21T09:57:40;1.65;;;1.05;;
32946;SDS011;54465;51.230;22.504;2023-04-21T10:02:50;2.10;;;0.98;;
32946;SDS011;54465;51.230;22.504;2023-04-21T10:07:51;2.53;;;0.90;;
32946;SDS011;54465;51.230;22.504;2023-04-21T10:12:52;1.13;;;0.77;;
32946;SDS011;54465;51.230;22.504;2023-04-21T10:17:53;1.65;;;1.08;;
32946;SDS011;54465;51.230;22.504;2023-04-21T10:22:55;2.80;;;1.00;;
32946;SDS011;54465;51.230;22.504;2023-04-21T10:27:57;3.00;;;1.50;;
32946;SDS011;54465;51.230;22.504;2023-04-21T10:33:04;1.15;;;0.80;;
32946;SDS011;54465;51.230;22.504;2023-04-21T10:38:05;3.35;;;1.20;;
32946;SDS011;54465;51.230;22.504;2023-04-21T10:43:06;1.42;;;1.15;;
32946;SDS011;54465;51.230;22.504;2023-04-21T10:48:50;1.30;;;1.00;;
32946;SDS011;54465;51.230;22.504;2023-04-21T10:53:51;4.80;;;1.15;;
32946;SDS011;54465;51.230;22.504;2023-04-21T10:58:51;2.17;;;1.08;;
32946;SDS011;54465;51.230;22.504;2023-04-21T11:03:52;4.28;;;1.40;;
32946;SDS011;54465;51.230;22.504;2023-04-21T11:08:55;1.98;;;1.40;;
32946;SDS011;54465;51.230;22.504;2023-04-21T11:13:59;2.58;;;1.42;;
32946;SDS011;54465;51.230;22.504;2023-04-21T11:19:00;2.05;;;1.20;;
32946;SDS011;54465;51.230;22.504;2023-04-21T11:24:01;1.80;;;1.17;;
32946;SDS011;54465;51.230;22.504;2023-04-21T11:29:05;1.63;;;1.02;;
32946;SDS011;54465;51.230;22.504;2023-04-21T11:34:06;2.60;;;1.13;;
32946;SDS011;54465;51.230;22.504;2023-04-21T11:39:07;2.30;;;1.50;;
32946;SDS011;54465;51.230;22.504;2023-04-21T11:44:12;1.35;;;0.88;;
32946;SDS011;54465;51.230;22.504;2023-04-21T11:49:13;3.88;;;1.20;;
32946;SDS011;54465;51.230;22.504;2023-04-21T11:54:16;1.52;;;1.00;;
32946;SDS011;54465;51.230;22.504;2023-04-21T11:59:18;1.58;;;1.00;;
32946;SDS011;54465;51.230;22.504;2023-04-21T12:04:25;5.28;;;1.30;;
32946;SDS011;54465;51.230;22.504;2023-04-21T12:09:26;1.25;;;1.00;;
32946;SDS011;54465;51.230;22.504;2023-04-21T12:14:27;2.80;;;1.65;;
32946;SDS011;54465;51.230;22.504;2023-04-21T12:19:37;4.22;;;1.50;;
32946;SDS011;54465;51.230;22.504;2023-04-21T12:24:39;2.08;;;1.30;;
32946;SDS011;54465;51.230;22.504;2023-04-21T12:29:40;3.83;;;1.30;;
32946;SDS011;54465;51.230;22.504;2023-04-21T12:34:41;3.67;;;1.50;;
32946;SDS011;54465;51.230;22.504;2023-04-21T12:39:42;2.60;;;1.65;;
32946;SDS011;54465;51.230;22.504;2023-04-21T12:44:43;1.90;;;1.38;;
32946;SDS011;54465;51.230;22.504;2023-04-21T12:49:44;3.53;;;1.70;;
32946;SDS011;54465;51.230;22.504;2023-04-21T12:54:44;4.15;;;1.48;;
32946;SDS011;54465;51.230;22.504;2023-04-21T12:59:44;3.67;;;1.42;;
32946;SDS011;54465;51.230;22.504;2023-04-21T13:04:45;3.30;;;1.70;;
32946;SDS011;54465;51.230;22.504;2023-04-21T13:09:46;2.45;;;1.45;;
32946;SDS011;54465;51.230;22.504;2023-04-21T13:14:46;1.95;;;1.27;;
32946;SDS011;54465;51.230;22.504;2023-04-21T13:19:47;4.15;;;1.50;;
32946;SDS011;54465;51.230;22.504;2023-04-21T13:24:47;2.13;;;1.50;;
32946;SDS011;54465;51.230;22.504;2023-04-21T13:29:48;2.42;;;1.60;;
32946;SDS011;54465;51.230;22.504;2023-04-21T13:34:48;2.03;;;1.48;;
32946;SDS011;54465;51.230;22.504;2023-04-21T13:39:49;3.65;;;1.70;;
32946;SDS011;54465;51.230;22.504;2023-04-21T13:44:49;2.60;;;1.60;;
32946;SDS011;54465;51.230;22.504;2023-04-21T13:49:50;1.98;;;1.60;;
32946;SDS011;54465;51.230;22.504;2023-04-21T13:54:51;1.63;;;1.30;;
32946;SDS011;54465;51.230;22.504;2023-04-21T13:59:52;2.50;;;1.40;;
32946;SDS011;54465;51.230;22.504;2023-04-21T14:04:53;1.52;;;1.23;;
32946;SDS011;54465;51.230;22.504;2023-04-21T14:09:53;2.72;;;1.25;;
32946;SDS011;54465;51.230;22.504;2023-04-21T14:14:54;1.70;;;1.33;;
32946;SDS011;54465;51.230;22.504;2023-04-21T14:19:54;1.45;;;1.25;;
32946;SDS011;54465;51.230;22.504;2023-04-21T14:24:55;2.53;;;1.50;;
32946;SDS011;54465;51.230;22.504;2023-04-21T14:29:55;4.00;;;1.20;;
32946;SDS011;54465;51.230;22.504;2023-04-21T14:34:58;4.45;;;1.27;;
32946;SDS011;54465;51.230;22.504;2023-04-21T14:39:59;3.22;;;1.45;;
32946;SDS011;54465;51.230;22.504;2023-04-21T14:45:00;1.50;;;1.25;;
32946;SDS011;54465;51.230;22.504;2023-04-21T14:50:01;4.05;;;1.40;;
32946;SDS011;54465;51.230;22.504;2023-04-21T14:55:01;2.28;;;1.42;;
32946;SDS011;54465;51.230;22.504;2023-04-21T15:00:03;2.60;;;1.15;;
32946;SDS011;54465;51.230;22.504;2023-04-21T15:05:05;3.55;;;1.50;;
32946;SDS011;54465;51.230;22.504;2023-04-21T15:10:07;4.68;;;1.38;;
32946;SDS011;54465;51.230;22.504;2023-04-21T15:15:08;2.03;;;1.20;;
32946;SDS011;54465;51.230;22.504;2023-04-21T15:20:10;1.80;;;1.20;;
32946;SDS011;54465;51.230;22.504;2023-04-21T15:25:10;1.38;;;0.90;;
32946;SDS011;54465;51.230;22.504;2023-04-21T15:30:11;1.40;;;0.90;;
32946;SDS011;54465;51.230;22.504;2023-04-21T15:35:12;3.55;;;1.90;;
32946;SDS011;54465;51.230;22.504;2023-04-21T15:40:12;1.65;;;1.27;;
32946;SDS011;54465;51.230;22.504;2023-04-21T15:45:13;3.08;;;1.42;;
32946;SDS011;54465;51.230;22.504;2023-04-21T15:50:16;1.30;;;1.15;;
32946;SDS011;54465;51.230;22.504;2023-04-21T15:55:18;3.30;;;1.00;;
32946;SDS011;54465;51.230;22.504;2023-04-21T16:00:18;1.48;;;0.65;;
32946;SDS011;54465;51.230;22.504;2023-04-21T16:05:19;1.63;;;0.80;;
32946;SDS011;54465;51.230;22.504;2023-04-21T16:10:20;1.35;;;1.02;;
32946;SDS011;54465;51.230;22.504;2023-04-21T16:15:20;1.23;;;0.82;;
32946;SDS011;54465;51.230;22.504;2023-04-21T16:20:21;1.60;;;1.05;;
32946;SDS011;54465;51.230;22.504;2023-04-21T16:25:21;1.48;;;0.73;;
32946;SDS011;54465;51.230;22.504;2023-04-21T16:30:22;1.23;;;0.80;;
32946;SDS011;54465;51.230;22.504;2023-04-21T16:35:22;1.60;;;1.00;;
32946;SDS011;54465;51.230;22.504;2023-04-21T16:40:23;1.40;;;0.98;;
32946;SDS011;54465;51.230;22.504;2023-04-21T16:45:24;1.83;;;1.10;;
32946;SDS011;54465;51.230;22.504;2023-04-21T16:50:24;2.22;;;1.20;;
32946;SDS011;54465;51.230;22.504;2023-04-21T16:55:26;1.80;;;1.10;;
32946;SDS011;54465;51.230;22.504;2023-04-21T17:00:26;2.65;;;0.98;;
32946;SDS011;54465;51.230;22.504;2023-04-21T17:05:29;1.70;;;1.15;;
32946;SDS011;54465;51.230;22.504;2023-04-21T17:10:29;1.55;;;1.05;;
32946;SDS011;54465;51.230;22.504;2023-04-21T17:15:30;3.22;;;1.17;;
32946;SDS011;54465;51.230;22.504;2023-04-21T17:20:32;4.22;;;1.58;;
32946;SDS011;54465;51.230;22.504;2023-04-21T17:25:34;6.07;;;1.70;;
32946;SDS011;54465;51.230;22.504;2023-04-21T17:30:37;6.40;;;1.80;;
32946;SDS011;54465;51.230;22.504;2023-04-21T17:35:37;3.10;;;1.35;;
32946;SDS011;54465;51.230;22.504;2023-04-21T17:40:38;5.85;;;1.95;;
32946;SDS011;54465;51.230;22.504;2023-04-21T17:45:38;8.52;;;1.65;;
32946;SDS011;54465;51.230;22.504;2023-04-21T17:50:39;5.65;;;1.92;;
32946;SDS011;54465;51.230;22.504;2023-04-21T17:55:39;10.27;;;2.83;;
32946;SDS011;54465;51.230;22.504;2023-04-21T18:00:40;5.60;;;3.05;;
32946;SDS011;54465;51.230;22.504;2023-04-21T18:05:40;10.05;;;3.60;;
32946;SDS011;54465;51.230;22.504;2023-04-21T18:10:41;7.97;;;4.18;;
32946;SDS011;54465;51.230;22.504;2023-04-21T18:15:41;6.78;;;3.70;;
32946;SDS011;54465;51.230;22.504;2023-04-21T18:20:42;8.60;;;4.00;;
32946;SDS011;54465;51.230;22.504;2023-04-21T18:25:42;12.27;;;3.85;;
32946;SDS011;54465;51.230;22.504;2023-04-21T18:30:43;10.90;;;4.47;;
32946;SDS011;54465;51.230;22.504;2023-04-21T18:35:43;6.20;;;4.47;;
32946;SDS011;54465;51.230;22.504;2023-04-21T18:40:44;8.63;;;4.90;;
32946;SDS011;54465;51.230;22.504;2023-04-21T18:45:45;10.63;;;5.30;;
32946;SDS011;54465;51.230;22.504;2023-04-21T18:50:45;16.25;;;6.43;;
32946;SDS011;54465;51.230;22.504;2023-04-21T18:55:46;10.43;;;5.65;;
32946;SDS011;54465;51.230;22.504;2023-04-21T19:00:47;22.27;;;9.63;;
32946;SDS011;54465;51.230;22.504;2023-04-21T19:05:47;31.77;;;13.05;;
32946;SDS011;54465;51.230;22.504;2023-04-21T19:10:47;31.63;;;14.27;;
32946;SDS011;54465;51.230;22.504;2023-04-21T19:15:48;34.95;;;16.02;;
32946;SDS011;54465;51.230;22.504;2023-04-21T19:20:49;23.88;;;11.48;;
32946;SDS011;54465;51.230;22.504;2023-04-21T19:25:49;21.83;;;11.35;;
32946;SDS011;54465;51.230;22.504;2023-04-21T19:30:53;23.35;;;10.25;;
32946;SDS011;54465;51.230;22.504;2023-04-21T19:35:54;23.23;;;10.45;;
32946;SDS011;54465;51.230;22.504;2023-04-21T19:40:58;21.10;;;9.63;;
32946;SDS011;54465;51.230;22.504;2023-04-21T19:45:58;20.25;;;8.48;;
32946;SDS011;54465;51.230;22.504;2023-04-21T19:50:59;16.33;;;7.97;;
32946;SDS011;54465;51.230;22.504;2023-04-21T19:56:00;20.38;;;7.97;;
32946;SDS011;54465;51.230;22.504;2023-04-21T20:01:00;19.67;;;9.80;;
32946;SDS011;54465;51.230;22.504;2023-04-21T20:06:01;20.77;;;7.90;;
32946;SDS011;54465;51.230;22.504;2023-04-21T20:11:03;19.85;;;8.57;;
32946;SDS011;54465;51.230;22.504;2023-04-21T20:16:04;12.85;;;6.65;;
32946;SDS011;54465;51.230;22.504;2023-04-21T20:21:05;12.93;;;6.10;;
32946;SDS011;54465;51.230;22.504;2023-04-21T20:26:05;9.32;;;5.85;;
32946;SDS011;54465;51.230;22.504;2023-04-21T20:31:05;15.85;;;6.47;;
32946;SDS011;54465;51.230;22.504;2023-04-21T20:36:06;11.45;;;6.00;;
32946;SDS011;54465;51.230;22.504;2023-04-21T20:41:07;15.52;;;5.68;;
32946;SDS011;54465;51.230;22.504;2023-04-21T20:46:08;8.40;;;5.07;;
32946;SDS011;54465;51.230;22.504;2023-04-21T20:51:08;10.20;;;4.57;;
32946;SDS011;54465;51.230;22.504;2023-04-21T20:56:09;9.77;;;5.05;;
32946;SDS011;54465;51.230;22.504;2023-04-21T21:01:09;10.55;;;5.40;;
32946;SDS011;54465;51.230;22.504;2023-04-21T21:06:10;8.70;;;4.75;;
32946;SDS011;54465;51.230;22.504;2023-04-21T21:11:12;9.55;;;4.63;;
32946;SDS011;54465;51.230;22.504;2023-04-21T21:16:12;7.72;;;3.92;;
32946;SDS011;54465;51.230;22.504;2023-04-21T21:21:13;8.68;;;3.97;;
32946;SDS011;54465;51.230;22.504;2023-04-21T21:26:13;8.75;;;4.88;;
32946;SDS011;54465;51.230;22.504;2023-04-21T21:31:14;11.23;;;6.43;;
32946;SDS011;54465;51.230;22.504;2023-04-21T21:36:14;12.93;;;5.93;;
32946;SDS011;54465;51.230;22.504;2023-04-21T21:41:15;11.65;;;6.35;;
32946;SDS011;54465;51.230;22.504;2023-04-21T21:46:17;12.95;;;6.15;;
32946;SDS011;54465;51.230;22.504;2023-04-21T21:51:18;11.82;;;5.28;;
32946;SDS011;54465;51.230;22.504;2023-04-21T21:56:19;13.60;;;4.57;;
32946;SDS011;54465;51.230;22.504;2023-04-21T22:01:20;11.65;;;4.60;;
32946;SDS011;54465;51.230;22.504;2023-04-21T22:06:20;10.68;;;3.97;;
32946;SDS011;54465;51.230;22.504;2023-04-21T22:11:23;9.65;;;4.88;;
32946;SDS011;54465;51.230;22.504;2023-04-21T22:16:23;8.13;;;4.65;;
32946;SDS011;54465;51.230;22.504;2023-04-21T22:21:24;14.35;;;5.40;;
32946;SDS011;54465;51.230;22.504;2023-04-21T22:26:27;8.82;;;4.45;;
32946;SDS011;54465;51.230;22.504;2023-04-21T22:31:27;7.28;;;3.97;;
32946;SDS011;54465;51.230;22.504;2023-04-21T22:36:29;7.68;;;4.25;;
32946;SDS011;54465;51.230;22.504;2023-04-21T22:41:31;8.38;;;4.75;;
32946;SDS011;54465;51.230;22.504;2023-04-21T22:46:31;7.30;;;4.03;;
32946;SDS011;54465;51.230;22.504;2023-04-21T22:51:32;8.10;;;3.83;;
32946;SDS011;54465;51.230;22.504;2023-04-21T22:56:33;10.40;;;3.70;;
32946;SDS011;54465;51.230;22.504;2023-04-21T23:01:33;7.35;;;3.63;;
32946;SDS011;54465;51.230;22.504;2023-04-21T23:06:34;8.25;;;3.33;;
32946;SDS011;54465;51.230;22.504;2023-04-21T23:11:34;8.60;;;3.63;;
32946;SDS011;54465;51.230;22.504;2023-04-21T23:16:34;8.20;;;3.72;;
32946;SDS011;54465;51.230;22.504;2023-04-21T23:21:35;7.43;;;4.00;;
32946;SDS011;54465;51.230;22.504;2023-04-21T23:26:35;11.25;;;3.45;;
32946;SDS011;54465;51.230;22.504;2023-04-21T23:31:36;8.80;;;4.05;;
32946;SDS011;54465;51.230;22.504;2023-04-21T23:36:36;6.10;;;2.78;;
32946;SDS011;54465;51.230;22.504;2023-04-21T23:41:37;5.25;;;2.85;;
32946;SDS011;54465;51.230;22.504;2023-04-21T23:46:37;5.40;;;3.10;;
32946;SDS011;54465;51.230;22.504;2023-04-21T23:51:38;9.75;;;3.75;;
32946;SDS011;54465;51.230;22.504;2023-04-21T23:56:38;6.80;;;3.92;;
